Time;durP1;ratioP1;P1;durP2;ratioP2;P2;SDS_P1;SDS_P2;PMS_P1;PMS_P2;Temp;Humidity;BMP_temperature;BMP_pressure;BME280_temperature;BME280_humidity;BME280_pressure;Samples;Min_cycle;Max_cycle;Signal;HPM_P1;HPM_P2
2024/01/03 00:00:20;;;;;;;1.73;0.40;;;20.20;55.00;;;;;;5037727;28;20036;-64
2024/01/03 00:02:47;;;;;;;1.42;0.60;;;20.20;55.00;;;;;;5036672;28;20129;-65
2024/01/03 00:05:13;;;;;;;1.45;0.70;;;20.20;55.10;;;;;;5037573;28;20465;-64
2024/01/03 00:07:40;;;;;;;0.68;0.50;;;20.20;55.20;;;;;;5039539;28;20032;-66
2024/01/03 00:10:35;;;;;;;1.23;0.50;;;20.20;55.30;;;;;;5039014;28;20030;-65
2024/01/03 00:13:01;;;;;;;1.58;0.50;;;20.20;55.40;;;;;;5033715;28;20033;-63
2024/01/03 00:15:35;;;;;;;1.10;0.50;;;20.20;55.50;;;;;;5038321;28;20034;-64
2024/01/03 00:18:04;;;;;;;1.40;0.50;;;20.20;55.50;;;;;;5037214;28;20452;-64
2024/01/03 00:20:32;;;;;;;1.83;0.50;;;20.20;55.50;;;;;;5036066;28;20303;-64
2024/01/03 00:22:58;;;;;;;1.23;0.40;;;20.20;55.40;;;;;;5037917;28;20090;-64
2024/01/03 00:25:30;;;;;;;0.75;0.40;;;20.20;55.40;;;;;;5035235;28;20139;-65
2024/01/03 00:27:56;;;;;;;1.58;0.75;;;20.20;55.30;;;;;;5036857;28;20029;-65
2024/01/03 00:30:22;;;;;;;0.75;0.50;;;20.20;55.30;;;;;;5037933;28;20043;-65
2024/01/03 00:32:48;;;;;;;1.60;0.68;;;20.20;55.20;;;;;;5037968;28;20132;-65
2024/01/03 00:35:14;;;;;;;2.15;0.55;;;20.10;55.10;;;;;;5036837;28;20084;-66
2024/01/03 00:37:40;;;;;;;0.88;0.50;;;20.20;55.20;;;;;;5043064;28;20033;-66
2024/01/03 00:40:32;;;;;;;0.75;0.47;;;20.20;55.10;;;;;;5040415;28;20074;-66
2024/01/03 00:42:57;;;;;;;0.77;0.50;;;20.10;55.00;;;;;;5039911;28;20052;-65
2024/01/03 00:45:23;;;;;;;0.45;0.40;;;20.10;54.90;;;;;;5039391;28;20086;-64
2024/01/03 00:47:49;;;;;;;1.48;0.50;;;20.10;55.00;;;;;;5042313;28;20513;-63
2024/01/03 00:50:16;;;;;;;0.95;0.50;;;20.10;54.90;;;;;;5039710;28;20037;-63
2024/01/03 00:52:42;;;;;;;0.60;0.43;;;20.10;54.90;;;;;;5042626;28;20144;-63
2024/01/03 00:55:09;;;;;;;0.45;0.40;;;20.10;54.90;;;;;;5040486;28;20427;-63
2024/01/03 00:57:36;;;;;;;1.58;0.65;;;20.10;54.90;;;;;;5042162;28;20028;-66
2024/01/03 01:00:02;;;;;;;0.80;0.50;;;20.10;54.80;;;;;;5041335;28;20362;-64
2024/01/03 01:02:28;;;;;;;1.17;0.40;;;20.00;54.80;;;;;;5040178;28;20033;-65
2024/01/03 01:04:54;;;;;;;0.55;0.45;;;20.10;54.80;;;;;;5040751;28;20099;-66
2024/01/03 01:07:20;;;;;;;1.00;0.50;;;20.10;54.80;;;;;;5038465;28;20493;-66
2024/01/03 01:09:45;;;;;;;0.95;0.65;;;20.10;54.80;;;;;;5038059;28;20049;-66
2024/01/03 01:12:11;;;;;;;0.98;0.50;;;20.10;54.80;;;;;;5038954;28;20520;-66
2024/01/03 01:14:37;;;;;;;0.75;0.50;;;20.00;54.80;;;;;;5039895;28;20512;-65
2024/01/03 01:17:03;;;;;;;0.40;0.30;;;20.00;54.70;;;;;;5040735;28;20388;-67
2024/01/03 01:19:28;;;;;;;0.38;0.35;;;20.00;54.70;;;;;;5041042;28;20548;-65
2024/01/03 01:21:54;;;;;;;0.43;0.40;;;20.00;54.70;;;;;;5037402;28;20424;-65
2024/01/03 01:24:19;;;;;;;0.77;0.40;;;20.00;54.80;;;;;;5056867;28;20051;-64
2024/01/03 01:26:45;;;;;;;0.80;0.50;;;20.00;54.70;;;;;;5040172;28;20021;-65
2024/01/03 01:29:10;;;;;;;0.60;0.50;;;20.00;54.70;;;;;;5041251;28;20032;-64
2024/01/03 01:31:36;;;;;;;1.13;0.30;;;20.00;54.70;;;;;;5041074;28;20028;-65
2024/01/03 01:34:02;;;;;;;0.90;0.50;;;20.00;54.80;;;;;;5040275;28;20049;-65
2024/01/03 01:36:27;;;;;;;0.98;0.40;;;20.00;54.80;;;;;;5039366;28;20036;-63
2024/01/03 01:38:53;;;;;;;1.48;0.43;;;20.00;54.70;;;;;;5041622;28;20029;-64
2024/01/03 01:41:19;;;;;;;1.55;0.40;;;19.90;54.70;;;;;;5038252;28;21187;-64
2024/01/03 01:43:44;;;;;;;0.90;0.50;;;20.00;54.80;;;;;;5040382;28;20021;-65
2024/01/03 01:46:11;;;;;;;1.67;0.52;;;20.00;54.70;;;;;;5041984;28;20037;-64
2024/01/03 01:48:37;;;;;;;0.63;0.32;;;19.90;54.70;;;;;;5039094;28;20123;-64
2024/01/03 01:51:03;;;;;;;0.95;0.40;;;19.90;54.70;;;;;;5038102;28;20304;-64
2024/01/03 01:53:29;;;;;;;1.00;0.50;;;19.90;54.70;;;;;;5041442;28;20497;-66
2024/01/03 01:55:56;;;;;;;0.38;0.38;;;19.90;54.60;;;;;;5042024;28;20115;-71
2024/01/03 01:58:22;;;;;;;0.35;0.30;;;19.90;54.60;;;;;;5040618;28;20033;-70
2024/01/03 02:00:48;;;;;;;0.52;0.30;;;19.90;54.60;;;;;;5041294;28;20051;-70
2024/01/03 02:03:15;;;;;;;0.52;0.40;;;19.90;54.70;;;;;;5040322;28;20167;-70
2024/01/03 02:05:42;;;;;;;0.40;0.35;;;19.90;54.70;;;;;;5038240;28;20115;-71
2024/01/03 02:08:10;;;;;;;0.57;0.40;;;19.90;54.70;;;;;;5038889;28;20059;-70
2024/01/03 02:10:36;;;;;;;0.65;0.38;;;19.90;54.70;;;;;;5040159;28;20155;-71
2024/01/03 02:13:02;;;;;;;1.65;0.45;;;19.90;54.60;;;;;;5039859;28;20112;-71
2024/01/03 02:15:28;;;;;;;0.52;0.30;;;19.90;54.60;;;;;;5038223;28;20116;-71
2024/01/03 02:17:57;;;;;;;0.73;0.47;;;19.90;54.60;;;;;;5039554;28;20029;-70
2024/01/03 02:20:25;;;;;;;0.68;0.55;;;19.90;54.60;;;;;;5038827;28;20021;-70
2024/01/03 02:22:50;;;;;;;0.38;0.30;;;19.80;54.60;;;;;;5037657;28;20052;-71
2024/01/03 02:25:16;;;;;;;0.65;0.40;;;19.80;54.60;;;;;;5038051;28;20036;-71
2024/01/03 02:27:41;;;;;;;0.38;0.38;;;19.80;54.60;;;;;;5039459;28;20025;-70
2024/01/03 02:30:09;;;;;;;0.82;0.40;;;19.80;54.60;;;;;;5038457;28;20140;-70
2024/01/03 02:32:35;;;;;;;1.17;0.50;;;19.80;54.60;;;;;;5041624;28;20033;-71
2024/01/03 02:35:00;;;;;;;0.68;0.40;;;19.80;54.60;;;;;;5038929;28;20385;-71
2024/01/03 02:37:26;;;;;;;0.68;0.30;;;19.80;54.60;;;;;;5037865;28;20022;-70
2024/01/03 02:39:52;;;;;;;1.10;0.40;;;19.80;54.60;;;;;;5038476;28;20030;-70
2024/01/03 02:42:18;;;;;;;0.35;0.30;;;19.80;54.60;;;;;;5034966;28;20021;-70
2024/01/03 02:44:43;;;;;;;0.47;0.40;;;19.80;54.60;;;;;;5038628;28;20068;-65
2024/01/03 02:47:09;;;;;;;0.85;0.50;;;19.80;54.60;;;;;;5039845;28;20060;-66
2024/01/03 02:49:35;;;;;;;0.45;0.40;;;19.80;54.60;;;;;;5039707;28;20033;-66
2024/01/03 02:52:00;;;;;;;0.50;0.38;;;19.80;54.60;;;;;;5037891;28;20446;-65
2024/01/03 02:54:26;;;;;;;0.30;0.30;;;19.70;54.60;;;;;;5038660;28;20037;-66
2024/01/03 02:56:53;;;;;;;0.65;0.40;;;19.70;54.50;;;;;;5037891;28;20101;-65
2024/01/03 02:59:19;;;;;;;0.45;0.40;;;19.70;54.50;;;;;;5033715;28;20335;-65
2024/01/03 03:01:45;;;;;;;0.75;0.40;;;19.70;54.50;;;;;;5039101;28;20043;-66
2024/01/03 03:04:11;;;;;;;0.30;0.30;;;19.70;54.50;;;;;;5038176;28;20031;-65
2024/01/03 03:06:36;;;;;;;0.30;0.30;;;19.70;54.50;;;;;;5037496;28;20423;-68
2024/01/03 03:09:02;;;;;;;0.93;0.30;;;19.70;54.50;;;;;;5037024;28;20033;-69
2024/01/03 03:11:28;;;;;;;1.00;0.40;;;19.70;54.50;;;;;;5038954;28;20039;-69
2024/01/03 03:13:54;;;;;;;0.40;0.40;;;19.70;54.50;;;;;;5037549;28;20030;-69
2024/01/03 03:16:19;;;;;;;0.52;0.40;;;19.70;54.50;;;;;;5039853;28;20087;-70
2024/01/03 03:18:45;;;;;;;0.32;0.32;;;19.70;54.50;;;;;;5036352;28;20029;-69
2024/01/03 03:21:11;;;;;;;0.43;0.22;;;19.70;54.50;;;;;;5035840;28;20415;-70
2024/01/03 03:23:36;;;;;;;0.30;0.30;;;19.70;54.50;;;;;;5037955;28;20466;-69
2024/01/03 03:26:03;;;;;;;0.40;0.40;;;19.70;54.50;;;;;;5038787;28;20033;-64
2024/01/03 03:28:30;;;;;;;0.40;0.40;;;19.70;54.50;;;;;;5035488;28;20079;-64
2024/01/03 03:30:55;;;;;;;1.40;0.40;;;19.70;54.50;;;;;;5036001;28;20113;-64
2024/01/03 03:33:21;;;;;;;0.55;0.32;;;19.70;54.50;;;;;;5039174;28;20485;-64
2024/01/03 03:35:47;;;;;;;0.22;0.22;;;19.60;54.50;;;;;;5035422;28;20536;-63
2024/01/03 03:38:12;;;;;;;0.57;0.40;;;19.60;54.50;;;;;;5037199;28;20033;-63
2024/01/03 03:40:38;;;;;;;0.40;0.30;;;19.60;54.50;;;;;;5037729;28;20067;-63
2024/01/03 03:43:03;;;;;;;0.73;0.40;;;19.60;54.50;;;;;;5038287;28;20342;-64
2024/01/03 03:45:30;;;;;;;0.30;0.25;;;19.60;54.50;;;;;;5039335;28;20025;-65
2024/01/03 03:47:57;;;;;;;0.60;0.60;;;19.60;54.50;;;;;;5040050;28;20078;-65
2024/01/03 03:50:22;;;;;;;0.45;0.30;;;19.70;54.50;;;;;;5036983;28;20481;-63
2024/01/03 03:52:48;;;;;;;0.65;0.40;;;19.70;54.50;;;;;;5036803;28;20037;-63
2024/01/03 03:55:15;;;;;;;0.30;0.30;;;19.60;54.50;;;;;;5037117;28;20039;-69
2024/01/03 03:57:40;;;;;;;0.30;0.30;;;19.60;54.50;;;;;;5037853;28;20037;-64
2024/01/03 04:00:07;;;;;;;0.57;0.38;;;19.60;54.50;;;;;;5039311;28;20036;-65
2024/01/03 04:02:33;;;;;;;0.32;0.32;;;19.60;54.50;;;;;;5037579;28;20021;-64
2024/01/03 04:04:59;;;;;;;0.30;0.30;;;19.60;54.50;;;;;;5036722;28;20033;-65
2024/01/03 04:07:24;;;;;;;0.30;0.30;;;19.60;54.50;;;;;;5033520;28;20532;-66
2024/01/03 04:09:50;;;;;;;0.40;0.40;;;19.60;54.50;;;;;;5037083;28;20055;-64
2024/01/03 04:12:15;;;;;;;0.38;0.38;;;19.60;54.50;;;;;;5036283;28;20021;-66
2024/01/03 04:14:41;;;;;;;0.55;0.30;;;19.60;54.50;;;;;;5036451;28;20818;-64
2024/01/03 04:17:06;;;;;;;0.57;0.45;;;19.60;54.50;;;;;;5034510;28;20025;-65
2024/01/03 04:19:32;;;;;;;0.40;0.40;;;19.60;54.50;;;;;;5036698;28;20618;-65
2024/01/03 04:21:58;;;;;;;0.32;0.30;;;19.60;54.50;;;;;;5034291;28;20030;-65
2024/01/03 04:24:24;;;;;;;0.40;0.40;;;19.60;54.50;;;;;;5036892;28;20041;-65
2024/01/03 04:26:53;;;;;;;0.30;0.30;;;19.60;54.80;;;;;;5038428;28;20025;-65
2024/01/03 04:29:18;;;;;;;0.50;0.43;;;19.60;54.40;;;;;;5037932;28;20056;-65
2024/01/03 04:31:44;;;;;;;0.40;0.40;;;19.60;54.40;;;;;;5037703;28;20057;-65
2024/01/03 04:34:10;;;;;;;0.43;0.30;;;19.60;54.50;;;;;;5037573;28;20079;-65
2024/01/03 04:36:35;;;;;;;0.30;0.30;;;19.50;54.50;;;;;;5037328;28;20508;-70
2024/01/03 04:39:01;;;;;;;0.20;0.20;;;19.50;54.40;;;;;;5035535;28;20033;-71
2024/01/03 04:41:27;;;;;;;0.28;0.28;;;19.50;54.40;;;;;;5036427;28;20022;-71
2024/01/03 04:43:52;;;;;;;0.32;0.30;;;19.60;54.50;;;;;;5037378;28;20037;-70
2024/01/03 04:46:18;;;;;;;0.20;0.20;;;19.50;54.40;;;;;;5038215;28;20792;-71
2024/01/03 04:48:44;;;;;;;0.38;0.38;;;19.50;54.50;;;;;;5038496;28;20464;-70
2024/01/03 04:51:09;;;;;;;0.45;0.40;;;19.50;54.50;;;;;;5037258;28;20028;-71
2024/01/03 04:53:35;;;;;;;0.60;0.40;;;19.50;54.50;;;;;;5034215;28;20055;-71
2024/01/03 04:56:01;;;;;;;0.30;0.30;;;19.50;54.50;;;;;;5036928;28;20028;-70
2024/01/03 04:58:26;;;;;;;0.30;0.30;;;19.50;54.50;;;;;;5034577;28;20057;-71
2024/01/03 05:00:52;;;;;;;0.40;0.40;;;19.50;54.50;;;;;;5036974;28;20029;-70
2024/01/03 05:03:19;;;;;;;0.73;0.40;;;19.50;54.50;;;;;;5037440;28;20025;-71
2024/01/03 05:05:45;;;;;;;0.38;0.38;;;19.50;54.50;;;;;;5038267;28;20481;-68
2024/01/03 05:08:10;;;;;;;0.50;0.50;;;19.50;54.60;;;;;;5034935;28;20037;-65
2024/01/03 05:10:36;;;;;;;0.30;0.30;;;19.40;54.60;;;;;;5036240;28;20496;-65
2024/01/03 05:13:01;;;;;;;0.25;0.25;;;19.50;54.60;;;;;;5037103;28;20026;-66
2024/01/03 05:15:27;;;;;;;0.22;0.22;;;19.50;54.60;;;;;;5037159;28;20033;-64
2024/01/03 05:17:52;;;;;;;0.30;0.30;;;19.50;54.60;;;;;;5036931;28;20026;-65
2024/01/03 05:20:19;;;;;;;0.40;0.20;;;19.50;54.70;;;;;;5036100;28;20477;-65
2024/01/03 05:22:44;;;;;;;0.52;0.40;;;19.40;54.60;;;;;;5041003;28;20025;-65
2024/01/03 05:25:10;;;;;;;0.30;0.30;;;19.50;54.70;;;;;;5038587;28;20592;-66
2024/01/03 05:27:36;;;;;;;0.35;0.35;;;19.40;54.70;;;;;;5039910;28;20109;-65
2024/01/03 05:30:01;;;;;;;0.40;0.30;;;19.50;54.70;;;;;;5038652;28;20037;-63
2024/01/03 05:32:27;;;;;;;0.40;0.30;;;19.40;54.70;;;;;;5055348;28;20025;-65
2024/01/03 05:34:52;;;;;;;0.40;0.40;;;19.40;54.70;;;;;;5040035;28;20109;-66
2024/01/03 05:37:18;;;;;;;0.30;0.30;;;19.40;54.70;;;;;;5038160;28;20033;-64
2024/01/03 05:39:45;;;;;;;0.57;0.40;;;19.40;54.70;;;;;;5041277;28;20347;-64
2024/01/03 05:42:10;;;;;;;0.22;0.22;;;19.40;54.80;;;;;;5039314;28;20692;-63
2024/01/03 05:44:36;;;;;;;0.22;0.22;;;19.40;54.70;;;;;;5038389;28;20104;-63
2024/01/03 05:47:02;;;;;;;0.30;0.30;;;19.40;54.80;;;;;;5039981;28;20086;-66
2024/01/03 05:49:28;;;;;;;0.20;0.20;;;19.40;54.80;;;;;;5039922;28;20448;-64
2024/01/03 05:51:54;;;;;;;0.40;0.30;;;19.40;54.90;;;;;;5039391;28;20112;-65
2024/01/03 05:54:19;;;;;;;0.30;0.30;;;19.40;54.90;;;;;;5038755;28;20038;-65
2024/01/03 05:56:45;;;;;;;0.32;0.30;;;19.40;54.90;;;;;;5037510;28;20057;-65
2024/01/03 05:59:11;;;;;;;0.30;0.30;;;19.40;54.80;;;;;;5038543;28;20021;-65
2024/01/03 06:01:36;;;;;;;0.30;0.30;;;19.40;54.80;;;;;;5040589;28;20033;-66
2024/01/03 06:04:02;;;;;;;0.40;0.30;;;19.40;54.90;;;;;;5039639;28;20516;-66
2024/01/03 06:06:27;;;;;;;0.40;0.40;;;19.40;54.90;;;;;;5041619;28;20036;-66
2024/01/03 06:08:53;;;;;;;0.60;0.35;;;19.40;54.80;;;;;;5035706;28;20025;-65
2024/01/03 06:11:19;;;;;;;0.55;0.40;;;19.40;54.80;;;;;;5039861;28;20098;-65
2024/01/03 06:13:44;;;;;;;0.50;0.40;;;19.40;54.90;;;;;;5037295;28;20354;-66
2024/01/03 06:16:12;;;;;;;0.40;0.30;;;19.40;54.90;;;;;;5039102;28;20041;-65
2024/01/03 06:18:38;;;;;;;0.55;0.35;;;19.40;54.90;;;;;;5041087;28;20085;-64
2024/01/03 06:21:04;;;;;;;0.30;0.30;;;19.40;54.90;;;;;;5039629;28;20079;-64
2024/01/03 06:23:29;;;;;;;0.45;0.40;;;19.40;54.90;;;;;;5037567;28;20442;-65
2024/01/03 06:25:55;;;;;;;0.52;0.30;;;19.40;54.90;;;;;;5039587;28;20033;-64
2024/01/03 06:28:21;;;;;;;0.32;0.32;;;19.40;54.90;;;;;;5039361;28;20207;-64
2024/01/03 06:30:46;;;;;;;0.38;0.38;;;19.40;54.90;;;;;;5038123;28;20343;-65
2024/01/03 06:33:12;;;;;;;0.20;0.20;;;19.40;54.90;;;;;;5039834;28;20048;-65
2024/01/03 06:35:38;;;;;;;0.30;0.30;;;19.40;54.90;;;;;;5039965;28;20120;-66
2024/01/03 06:38:03;;;;;;;0.30;0.30;;;19.40;54.90;;;;;;5037758;28;20033;-70
2024/01/03 06:40:30;;;;;;;0.30;0.30;;;19.40;54.90;;;;;;5036984;28;20083;-69
2024/01/03 06:42:56;;;;;;;0.32;0.32;;;19.40;54.90;;;;;;5037530;28;20042;-70
2024/01/03 06:45:21;;;;;;;0.30;0.30;;;19.30;54.80;;;;;;5039063;28;20029;-70
2024/01/03 06:47:47;;;;;;;0.95;0.28;;;19.40;54.90;;;;;;5039753;28;20029;-70
2024/01/03 06:50:13;;;;;;;0.30;0.30;;;19.40;54.80;;;;;;5040680;28;20021;-71
2024/01/03 06:52:39;;;;;;;0.30;0.30;;;19.40;54.90;;;;;;5039387;28;20825;-70
2024/01/03 06:55:05;;;;;;;0.22;0.22;;;19.40;54.90;;;;;;5036493;28;20033;-70
2024/01/03 06:57:31;;;;;;;0.38;0.30;;;19.40;54.80;;;;;;5039455;28;20117;-70
2024/01/03 06:59:56;;;;;;;0.28;0.25;;;19.40;54.80;;;;;;5037900;28;20101;-70
2024/01/03 07:02:22;;;;;;;0.30;0.30;;;19.30;54.70;;;;;;5034228;28;20477;-70
2024/01/03 07:04:47;;;;;;;0.40;0.40;;;19.40;54.80;;;;;;5038746;28;20028;-70
2024/01/03 07:07:15;;;;;;;0.50;0.30;;;19.30;54.70;;;;;;5038864;28;20061;-71
2024/01/03 07:09:41;;;;;;;0.45;0.30;;;19.30;54.70;;;;;;5035976;28;20025;-70
2024/01/03 07:12:07;;;;;;;0.30;0.30;;;19.30;54.70;;;;;;5040902;28;20040;-70
2024/01/03 07:14:33;;;;;;;0.32;0.28;;;19.30;54.60;;;;;;5036700;28;20029;-69
2024/01/03 07:16:58;;;;;;;0.30;0.30;;;19.30;54.60;;;;;;5038612;28;20029;-71
2024/01/03 07:19:24;;;;;;;0.20;0.20;;;19.30;54.60;;;;;;5037791;28;20569;-70
2024/01/03 07:21:49;;;;;;;0.22;0.22;;;19.30;54.60;;;;;;5038754;28;20021;-70
2024/01/03 07:24:15;;;;;;;0.20;0.20;;;19.30;54.60;;;;;;5036754;28;20469;-70
2024/01/03 07:26:41;;;;;;;0.57;0.20;;;19.30;54.60;;;;;;5038438;28;20066;-65
2024/01/03 07:29:07;;;;;;;0.20;0.20;;;19.30;55.10;;;;;;5038753;28;20146;-63
2024/01/03 07:31:33;;;;;;;0.68;0.32;;;19.30;54.60;;;;;;5037837;28;20036;-63
2024/01/03 07:33:58;;;;;;;0.25;0.20;;;19.30;54.60;;;;;;5038279;28;20458;-64
2024/01/03 07:36:24;;;;;;;0.47;0.40;;;19.30;55.10;;;;;;5036530;28;20033;-65
2024/01/03 07:38:49;;;;;;;0.20;0.20;;;19.30;54.60;;;;;;5036941;28;20025;-65
2024/01/03 07:41:21;;;;;;;0.20;0.20;;;19.30;54.60;;;;;;5038037;28;20017;-65
2024/01/03 07:43:47;;;;;;;0.20;0.20;;;19.30;54.60;;;;;;5037959;28;20036;-65
2024/01/03 07:46:15;;;;;;;0.20;0.20;;;19.30;54.60;;;;;;5036950;28;20392;-64
2024/01/03 07:48:41;;;;;;;0.30;0.30;;;19.30;54.50;;;;;;5036596;28;20041;-65
2024/01/03 07:51:06;;;;;;;0.30;0.30;;;19.30;54.50;;;;;;5038168;28;20091;-65
2024/01/03 07:53:32;;;;;;;0.30;0.30;;;19.30;54.50;;;;;;5035219;28;20536;-66
2024/01/03 07:55:58;;;;;;;0.20;0.20;;;19.30;54.50;;;;;;5035353;28;20124;-65
2024/01/03 07:58:24;;;;;;;0.47;0.32;;;19.30;54.50;;;;;;5037492;28;20119;-65
2024/01/03 08:00:49;;;;;;;0.30;0.30;;;19.30;55.30;;;;;;5036984;28;20096;-66
2024/01/03 08:03:15;;;;;;;0.30;0.30;;;19.30;54.80;;;;;;5038821;28;20037;-65
2024/01/03 08:05:40;;;;;;;0.30;0.30;;;19.30;54.80;;;;;;5037872;28;20025;-65
2024/01/03 08:08:06;;;;;;;0.30;0.30;;;19.30;55.10;;;;;;5053252;28;20029;-68
2024/01/03 08:10:32;;;;;;;0.20;0.20;;;19.30;55.20;;;;;;5037736;28;20106;-69
2024/01/03 08:12:57;;;;;;;0.20;0.20;;;19.40;55.30;;;;;;5036736;28;20044;-70
2024/01/03 08:15:23;;;;;;;0.20;0.20;;;19.40;55.50;;;;;;5037078;28;20536;-68
2024/01/03 08:17:48;;;;;;;0.20;0.20;;;19.40;55.50;;;;;;5040089;28;20022;-67
2024/01/03 08:20:14;;;;;;;0.25;0.20;;;19.40;55.70;;;;;;5037816;28;20456;-67
2024/01/03 08:22:40;;;;;;;0.40;0.28;;;19.40;55.70;;;;;;5038112;28;20024;-67
2024/01/03 08:25:06;;;;;;;0.30;0.30;;;19.50;55.90;;;;;;5031743;28;20069;-68
2024/01/03 08:27:36;;;;;;;0.47;0.30;;;19.50;55.90;;;;;;5036910;28;20033;-67
2024/01/03 08:30:02;;;;;;;0.63;0.50;;;19.60;56.00;;;;;;5038962;28;20092;-67
2024/01/03 08:32:27;;;;;;;0.73;0.30;;;19.60;56.00;;;;;;5038597;28;20057;-68
2024/01/03 08:34:53;;;;;;;2.72;0.30;;;19.60;56.10;;;;;;5035296;28;20072;-67
2024/01/03 08:37:19;;;;;;;1.05;0.40;;;19.60;56.20;;;;;;5038637;28;20540;-68
2024/01/03 08:39:44;;;;;;;0.28;0.28;;;19.70;56.20;;;;;;5033388;28;20029;-68
2024/01/03 08:42:10;;;;;;;1.42;0.40;;;19.70;56.10;;;;;;5036928;28;20719;-68
2024/01/03 08:44:35;;;;;;;1.33;0.30;;;19.70;56.40;;;;;;5036365;28;20179;-68
2024/01/03 08:47:01;;;;;;;1.08;0.30;;;19.80;56.40;;;;;;5036899;28;20631;-62
2024/01/03 08:49:27;;;;;;;1.63;0.38;;;19.80;56.50;;;;;;5036801;28;20029;-63
2024/01/03 08:51:52;;;;;;;2.10;0.30;;;19.80;56.60;;;;;;5035696;28;20490;-64
2024/01/03 08:54:18;;;;;;;0.98;0.47;;;19.90;56.70;;;;;;5036086;28;20029;-63
2024/01/03 08:56:47;;;;;;;1.20;0.50;;;19.90;56.50;;;;;;5046545;28;20076;-67
2024/01/03 08:59:12;;;;;;;0.60;0.40;;;19.90;56.60;;;;;;5059982;28;20017;-66
2024/01/03 09:01:38;;;;;;;1.08;0.40;;;19.90;56.10;;;;;;5051248;28;20094;-67
2024/01/03 09:04:03;;;;;;;0.30;0.30;;;19.90;55.60;;;;;;5056093;28;20032;-66
2024/01/03 09:06:32;;;;;;;0.82;0.40;;;19.90;55.30;;;;;;5055609;28;20034;-66
2024/01/03 09:08:58;;;;;;;1.85;0.50;;;19.90;55.20;;;;;;5050596;28;20462;-66
2024/01/03 09:11:26;;;;;;;0.88;0.40;;;19.90;55.10;;;;;;5040824;28;20037;-67
2024/01/03 09:13:52;;;;;;;0.57;0.30;;;19.90;55.50;;;;;;5040656;28;20033;-66
2024/01/03 09:16:19;;;;;;;0.30;0.30;;;20.00;55.00;;;;;;5040297;28;20064;-64
2024/01/03 09:18:46;;;;;;;0.32;0.32;;;20.00;54.90;;;;;;5039704;28;20086;-64
2024/01/03 09:21:12;;;;;;;0.43;0.30;;;20.00;54.80;;;;;;5041798;28;20021;-64
2024/01/03 09:23:37;;;;;;;0.43;0.30;;;20.00;54.80;;;;;;5041035;28;20493;-64
2024/01/03 09:26:04;;;;;;;0.30;0.30;;;20.00;54.70;;;;;;5038746;28;20049;-65
2024/01/03 09:28:29;;;;;;;0.30;0.30;;;20.00;54.60;;;;;;5043369;28;20032;-64
2024/01/03 09:30:55;;;;;;;0.43;0.40;;;20.00;54.60;;;;;;5039916;28;20033;-64
2024/01/03 09:33:21;;;;;;;1.23;0.30;;;20.00;54.40;;;;;;5040300;28;20501;-64
2024/01/03 09:35:46;;;;;;;0.47;0.30;;;20.10;54.40;;;;;;5038940;28;20084;-63
2024/01/03 09:38:14;;;;;;;0.98;0.40;;;20.10;54.30;;;;;;5038565;28;20080;-64
2024/01/03 09:40:41;;;;;;;0.50;0.30;;;20.10;54.10;;;;;;5038920;28;20444;-64
2024/01/03 09:43:07;;;;;;;0.20;0.20;;;20.10;54.30;;;;;;5041147;28;20037;-64
2024/01/03 09:45:32;;;;;;;0.30;0.30;;;20.10;54.20;;;;;;5039325;28;20110;-64
2024/01/03 09:47:58;;;;;;;1.38;0.40;;;20.10;54.10;;;;;;5041147;28;20037;-64
2024/01/03 09:50:25;;;;;;;0.20;0.20;;;20.10;54.10;;;;;;5038929;28;20479;-64
2024/01/03 09:52:55;;;;;;;0.65;0.45;;;20.20;54.10;;;;;;5041752;28;20103;-66
2024/01/03 09:55:20;;;;;;;0.75;0.40;;;20.10;54.20;;;;;;5037465;28;20315;-66
2024/01/03 09:57:49;;;;;;;0.40;0.40;;;20.20;54.20;;;;;;5041254;28;20539;-63
2024/01/03 10:00:15;;;;;;;0.32;0.30;;;20.20;54.10;;;;;;5039764;28;20219;-63
2024/01/03 10:02:45;;;;;;;0.50;0.38;;;20.20;54.10;;;;;;5037260;28;20177;-63
2024/01/03 10:05:17;;;;;;;0.20;0.20;;;20.20;54.60;;;;;;5037216;28;20029;-63
2024/01/03 10:07:43;;;;;;;0.20;0.20;;;20.20;54.20;;;;;;5038538;28;20473;-65
2024/01/03 10:10:09;;;;;;;0.32;0.30;;;20.20;54.20;;;;;;5035938;28;20033;-64
2024/01/03 10:12:35;;;;;;;1.13;0.40;;;20.30;54.30;;;;;;5038935;28;20378;-63
2024/01/03 10:15:17;;;;;;;0.50;0.40;;;20.30;54.20;;;;;;5039467;28;20033;-64
2024/01/03 10:17:44;;;;;;;0.65;0.30;;;20.40;54.20;;;;;;5054833;28;20035;-63
2024/01/03 10:20:29;;;;;;;0.95;0.40;;;20.40;54.10;;;;;;5040033;28;20034;-64
2024/01/03 10:23:12;;;;;;;0.55;0.30;;;20.50;54.10;;;;;;5039067;28;20045;-63
2024/01/03 10:25:39;;;;;;;0.55;0.32;;;20.50;54.00;;;;;;5039135;28;20466;-65
2024/01/03 10:28:08;;;;;;;0.50;0.40;;;20.60;54.00;;;;;;5038680;28;20029;-66
2024/01/03 10:30:34;;;;;;;0.40;0.40;;;20.60;54.00;;;;;;5039154;28;20021;-65
2024/01/03 10:33:02;;;;;;;0.30;0.30;;;20.60;53.90;;;;;;5039322;28;20116;-65
2024/01/03 10:35:29;;;;;;;0.88;0.47;;;20.60;53.80;;;;;;5039594;28;20036;-65
2024/01/03 10:37:56;;;;;;;0.47;0.40;;;20.70;53.90;;;;;;5039821;28;20338;-66
2024/01/03 10:40:24;;;;;;;1.13;0.43;;;20.70;53.90;;;;;;5037151;28;20021;-65
2024/01/03 10:42:51;;;;;;;0.43;0.25;;;20.70;53.90;;;;;;5036650;28;20036;-65
2024/01/03 10:45:17;;;;;;;1.00;0.40;;;20.70;53.80;;;;;;5039471;28;20064;-66
2024/01/03 10:47:43;;;;;;;1.02;0.57;;;20.80;53.90;;;;;;5036726;28;20505;-66
2024/01/03 10:50:10;;;;;;;0.43;0.30;;;20.80;53.80;;;;;;5038848;28;20026;-66
2024/01/03 10:52:39;;;;;;;0.30;0.30;;;20.90;53.60;;;;;;5037023;28;20621;-65
2024/01/03 10:55:08;;;;;;;0.70;0.40;;;20.90;53.60;;;;;;5035254;28;20095;-65
2024/01/03 10:57:35;;;;;;;0.70;0.40;;;21.00;53.40;;;;;;5039823;28;20065;-65
2024/01/03 11:00:29;;;;;;;0.43;0.40;;;20.90;53.30;;;;;;5039554;28;20488;-66
2024/01/03 11:03:02;;;;;;;0.60;0.40;;;20.90;53.20;;;;;;5037309;28;20477;-66
2024/01/03 11:05:37;;;;;;;1.05;0.60;;;20.90;53.40;;;;;;5037815;28;20377;-65
2024/01/03 11:08:07;;;;;;;1.00;0.50;;;21.00;53.50;;;;;;5038417;28;20481;-70
2024/01/03 11:10:53;;;;;;;0.85;0.52;;;21.00;53.60;;;;;;5036130;28;20040;-69
2024/01/03 11:13:33;;;;;;;1.02;0.43;;;21.00;53.60;;;;;;5038305;28;20025;-71
2024/01/03 11:16:00;;;;;;;0.57;0.45;;;21.10;53.70;;;;;;5038268;28;20025;-70
2024/01/03 11:18:44;;;;;;;0.57;0.40;;;21.00;53.50;;;;;;5038029;28;20040;-69
2024/01/03 11:21:31;;;;;;;1.13;0.50;;;21.10;53.70;;;;;;5038351;28;20028;-69
2024/01/03 11:23:57;;;;;;;0.63;0.40;;;21.10;53.60;;;;;;5038634;28;20026;-69
2024/01/03 11:26:54;;;;;;;1.85;0.50;;;21.10;53.60;;;;;;5037275;28;20037;-70
2024/01/03 11:29:48;;;;;;;1.77;0.80;;;21.10;53.60;;;;;;5038344;28;20093;-69
2024/01/03 11:32:31;;;;;;;0.50;0.50;;;21.10;53.50;;;;;;5038267;28;20029;-69
2024/01/03 11:34:58;;;;;;;0.93;0.50;;;21.10;53.40;;;;;;5036269;28;20025;-69
2024/01/03 11:37:24;;;;;;;0.65;0.40;;;21.10;53.50;;;;;;5038241;28;20477;-69
2024/01/03 11:39:52;;;;;;;0.75;0.47;;;21.10;53.70;;;;;;5036841;28;20029;-69
2024/01/03 11:42:31;;;;;;;2.13;0.55;;;21.10;53.70;;;;;;5036570;28;20425;-69
2024/01/03 11:45:13;;;;;;;0.85;0.40;;;21.20;53.80;;;;;;5035593;28;20584;-70
2024/01/03 11:47:43;;;;;;;1.00;0.50;;;21.20;53.70;;;;;;5038907;28;20143;-69
2024/01/03 11:50:12;;;;;;;0.90;0.40;;;21.20;53.70;;;;;;5039074;28;20061;-69
2024/01/03 11:52:49;;;;;;;0.70;0.43;;;21.20;53.60;;;;;;5039080;28;20037;-68
2024/01/03 11:55:16;;;;;;;0.60;0.30;;;21.20;53.70;;;;;;5036410;28;20041;-68
2024/01/03 11:57:45;;;;;;;2.75;0.50;;;21.20;53.10;;;;;;5038224;28;20080;-69
2024/01/03 12:00:23;;;;;;;2.22;0.50;;;21.20;53.20;;;;;;5038557;28;20461;-69
2024/01/03 12:02:53;;;;;;;1.77;0.57;;;21.10;53.10;;;;;;5036963;28;20024;-69
2024/01/03 12:05:20;;;;;;;2.03;0.63;;;21.10;53.10;;;;;;5036852;28;20477;-69
2024/01/03 12:07:47;;;;;;;1.88;0.82;;;21.10;53.10;;;;;;5035830;28;20017;-68
2024/01/03 12:10:13;;;;;;;1.35;0.57;;;21.10;53.20;;;;;;5038163;28;20555;-68
2024/01/03 12:12:39;;;;;;;1.27;0.52;;;21.10;53.20;;;;;;5035118;28;20030;-68
2024/01/03 12:15:05;;;;;;;1.45;0.50;;;21.10;53.30;;;;;;5049943;28;20037;-69
2024/01/03 12:17:32;;;;;;;1.00;0.50;;;21.10;53.30;;;;;;5036368;28;20041;-63
2024/01/03 12:20:13;;;;;;;1.17;0.50;;;21.00;53.30;;;;;;5035418;28;20446;-64
2024/01/03 12:22:38;;;;;;;2.13;0.60;;;21.00;53.30;;;;;;5035375;28;20025;-64
2024/01/03 12:25:04;;;;;;;0.60;0.50;;;21.00;53.40;;;;;;5038265;28;20035;-64
2024/01/03 12:27:32;;;;;;;1.63;0.73;;;21.10;53.40;;;;;;5035607;28;20040;-63
2024/01/03 12:30:18;;;;;;;1.10;0.60;;;21.10;53.80;;;;;;5036484;28;20032;-64
2024/01/03 12:32:45;;;;;;;1.00;0.55;;;21.10;53.30;;;;;;5036061;28;20032;-63
2024/01/03 12:35:12;;;;;;;2.13;0.57;;;21.10;53.30;;;;;;5037165;28;20029;-63
2024/01/03 12:37:49;;;;;;;1.42;0.60;;;21.10;53.30;;;;;;5036854;28;20030;-64
2024/01/03 12:40:16;;;;;;;1.17;0.50;;;21.10;53.80;;;;;;5036995;28;20044;-63
2024/01/03 12:42:43;;;;;;;0.73;0.45;;;21.10;53.30;;;;;;5034546;28;20035;-64
2024/01/03 12:45:09;;;;;;;1.88;0.60;;;21.10;53.40;;;;;;5038168;28;20082;-64
2024/01/03 12:47:35;;;;;;;0.82;0.50;;;21.10;53.40;;;;;;5037494;28;20107;-63